createdAt,value
2022-10-05T00:00:53.429Z,16.35
2022-10-05T00:03:22.659Z,10.55
2022-10-05T00:05:50.026Z,13.32
2022-10-05T00:08:25.410Z,15.50
2022-10-05T00:10:52.712Z,14.63
2022-10-05T00:13:26.046Z,14.90
2022-10-05T00:16:07.807Z,14.60
2022-10-05T00:18:34.606Z,12.52
2022-10-05T00:21:02.064Z,15.02
2022-10-05T00:23:32.316Z,16.70
2022-10-05T00:26:11.893Z,14.38
2022-10-05T00:28:40.608Z,17.30
2022-10-05T00:31:17.290Z,15.25
2022-10-05T00:33:44.149Z,12.63
2022-10-05T00:36:11.113Z,13.27
2022-10-05T00:38:38.216Z,10.85
2022-10-05T00:41:39.353Z,17.48
2022-10-05T00:44:12.076Z,14.82
2022-10-05T00:46:57.237Z,10.85
2022-10-05T00:50:01.885Z,12.15
2022-10-05T00:52:36.960Z,16.40
2022-10-05T00:55:26.648Z,12.82
2022-10-05T00:57:59.373Z,10.23
2022-10-05T01:00:27.935Z,15.75
2022-10-05T01:03:00.553Z,14.40
2022-10-05T01:05:48.781Z,11.90
2022-10-05T01:08:18.414Z,11.75
2022-10-05T01:10:52.715Z,11.73
2022-10-05T01:13:28.682Z,12.80
2022-10-05T01:16:05.005Z,11.05
2022-10-05T01:18:50.645Z,15.05
2022-10-05T01:21:23.058Z,17.73
2022-10-05T01:24:14.342Z,13.65
2022-10-05T01:27:05.331Z,13.05
2022-10-05T01:29:49.767Z,13.82
2022-10-05T01:32:31.819Z,11.75
2022-10-05T01:35:07.774Z,13.38
2022-10-05T01:37:42.231Z,8.40
2022-10-05T01:40:16.138Z,13.00
2022-10-05T01:42:45.758Z,16.35
2022-10-05T01:45:47.627Z,18.77
2022-10-05T01:48:17.341Z,17.40
2022-10-05T01:51:02.630Z,20.27
2022-10-05T01:53:42.865Z,18.65
2022-10-05T01:56:41.612Z,19.67
2022-10-05T01:59:19.010Z,22.13
2022-10-05T02:01:54.990Z,16.90
2022-10-05T02:05:00.886Z,20.58
2022-10-05T02:07:36.167Z,17.50
2022-10-05T02:10:14.911Z,16.05
2022-10-05T02:12:43.143Z,22.02
2022-10-05T02:15:17.982Z,15.02
2022-10-05T02:17:49.242Z,19.70
2022-10-05T02:20:23.733Z,17.20
2022-10-05T02:22:54.832Z,19.67
2022-10-05T02:25:38.932Z,14.85
2022-10-05T02:28:18.777Z,20.70
2022-10-05T02:30:53.074Z,16.63
2022-10-05T02:33:38.574Z,20.38
2022-10-05T02:36:34.721Z,16.48
2022-10-05T02:39:10.395Z,19.58
2022-10-05T02:41:48.202Z,17.67
2022-10-05T02:44:23.793Z,11.75
2022-10-05T02:46:57.430Z,18.55
2022-10-05T02:49:24.611Z,14.75
2022-10-05T02:52:03.349Z,11.27
2022-10-05T02:54:40.248Z,16.38
2022-10-05T02:57:19.009Z,13.93
2022-10-05T03:00:04.684Z,12.00
2022-10-05T03:02:44.342Z,15.15
2022-10-05T03:05:17.428Z,11.80
2022-10-05T03:08:22.428Z,12.77
2022-10-05T03:11:04.744Z,18.50
2022-10-05T03:13:49.809Z,14.40
2022-10-05T03:16:38.528Z,10.18
2022-10-05T03:19:22.441Z,11.48
2022-10-05T03:22:01.060Z,12.02
2022-10-05T03:24:36.767Z,18.67
2022-10-05T03:27:22.891Z,18.20
2022-10-05T03:30:08.138Z,17.10
2022-10-05T03:32:54.801Z,15.02
2022-10-05T03:35:43.016Z,17.27
2022-10-05T03:38:31.330Z,16.30
2022-10-05T03:41:35.215Z,12.45
2022-10-05T03:44:12.644Z,11.85
2022-10-05T03:46:48.945Z,13.38
2022-10-05T03:49:36.060Z,15.05
2022-10-05T03:52:12.849Z,13.70
2022-10-05T03:54:48.759Z,13.65
2022-10-05T03:57:26.705Z,16.50
2022-10-05T04:00:12.962Z,12.27
2022-10-05T04:02:57.528Z,14.50
2022-10-05T04:05:30.034Z,16.38
2022-10-05T04:08:01.780Z,12.45
2022-10-05T04:10:35.694Z,14.02
2022-10-05T04:13:15.693Z,12.60
2022-10-05T04:16:10.129Z,16.35
2022-10-05T04:18:47.785Z,12.65
2022-10-05T04:21:51.755Z,19.10
2022-10-05T04:24:32.535Z,13.90
2022-10-05T04:27:03.350Z,12.25
2022-10-05T04:30:12.674Z,15.30
2022-10-05T04:32:43.387Z,10.85
2022-10-05T04:35:15.871Z,11.70
2022-10-05T04:38:01.149Z,12.77
2022-10-05T04:40:33.885Z,13.32
2022-10-05T04:43:24.342Z,12.80
2022-10-05T04:45:51.101Z,14.30
2022-10-05T04:48:20.718Z,11.50
2022-10-05T04:51:00.263Z,14.40
2022-10-05T04:54:06.356Z,12.48
2022-10-05T04:56:39.963Z,13.82
2022-10-05T04:59:50.946Z,13.07
2022-10-05T05:02:25.320Z,11.40
2022-10-05T05:05:10.702Z,13.43
2022-10-05T05:07:49.321Z,20.30
2022-10-05T05:10:25.007Z,13.90
2022-10-05T05:13:00.665Z,13.80
2022-10-05T05:15:50.475Z,14.60
2022-10-05T05:18:26.637Z,11.20
2022-10-05T05:21:02.463Z,13.68
2022-10-05T05:23:39.642Z,15.52
2022-10-05T05:26:40.213Z,16.02
2022-10-05T05:29:30.990Z,12.55
2022-10-05T05:32:01.134Z,14.15
2022-10-05T05:34:55.897Z,16.98
2022-10-05T05:37:28.470Z,15.77
2022-10-05T05:40:03.915Z,12.95
2022-10-05T05:42:43.503Z,13.18
2022-10-05T05:45:20.466Z,20.52
2022-10-05T05:47:54.011Z,16.95
2022-10-05T05:50:38.811Z,12.63
2022-10-05T05:53:17.237Z,11.77
2022-10-05T05:55:50.706Z,12.45
2022-10-05T05:58:17.421Z,14.48
2022-10-05T06:00:54.412Z,13.73
2022-10-05T06:03:21.187Z,17.67
2022-10-05T06:05:52.910Z,16.67
2022-10-05T06:08:43.523Z,13.77
2022-10-05T06:11:18.267Z,11.95
2022-10-05T06:13:45.530Z,14.63
2022-10-05T06:16:24.766Z,11.77
2022-10-05T06:18:58.918Z,11.20
2022-10-05T06:21:34.733Z,13.27
2022-10-05T06:24:24.611Z,12.35
2022-10-05T06:27:03.197Z,13.13
2022-10-05T06:29:48.169Z,16.88
2022-10-05T06:32:28.948Z,10.63
2022-10-05T06:35:07.990Z,11.65
2022-10-05T06:37:56.382Z,15.77
2022-10-05T06:40:57.940Z,14.57
2022-10-05T06:43:39.865Z,10.98
2022-10-05T06:46:19.716Z,13.75
2022-10-05T06:49:18.774Z,17.55
2022-10-05T06:51:51.318Z,14.02
2022-10-05T06:54:30.173Z,14.77
2022-10-05T06:57:15.817Z,17.92
2022-10-05T06:59:52.078Z,16.38
2022-10-05T07:02:29.776Z,19.45
2022-10-05T07:05:42.736Z,18.67
2022-10-05T07:08:37.793Z,25.67
2022-10-05T07:11:20.909Z,18.63
2022-10-05T07:14:03.707Z,18.25
2022-10-05T07:16:52.078Z,18.05
2022-10-05T07:19:40.618Z,18.27
2022-10-05T07:22:31.786Z,19.60
2022-10-05T07:25:22.042Z,25.90
2022-10-05T07:28:06.035Z,28.92
2022-10-05T07:30:44.585Z,26.85
2022-10-05T07:33:22.183Z,20.23
2022-10-05T07:36:23.326Z,24.67
2022-10-05T07:39:07.966Z,22.30
2022-10-05T07:41:46.153Z,28.00
2022-10-05T07:44:38.326Z,18.45
2022-10-05T07:47:13.448Z,18.65
2022-10-05T07:49:43.445Z,19.63
2022-10-05T07:52:19.378Z,18.75
2022-10-05T07:54:53.277Z,16.35
2022-10-05T07:57:30.184Z,15.93
2022-10-05T08:00:13.841Z,20.08
2022-10-05T08:03:11.670Z,16.90
2022-10-05T08:05:42.619Z,12.98
2022-10-05T08:08:14.418Z,15.02
2022-10-05T08:10:56.189Z,15.70
2022-10-05T08:13:43.615Z,19.70
2022-10-05T08:16:15.147Z,18.23
2022-10-05T08:19:00.029Z,14.77
2022-10-05T08:21:41.560Z,17.48
2022-10-05T08:24:20.499Z,17.48
2022-10-05T08:26:59.925Z,16.43
2022-10-05T08:29:37.841Z,15.60
2022-10-05T08:32:15.633Z,14.48
2022-10-05T08:34:51.466Z,12.30
2022-10-05T08:37:29.390Z,22.17
2022-10-05T08:40:14.798Z,15.68
2022-10-05T08:42:41.525Z,15.35
2022-10-05T08:45:54.115Z,17.30
2022-10-05T08:48:58.114Z,28.70
2022-10-05T08:51:27.542Z,17.52
2022-10-05T08:54:09.294Z,19.83
2022-10-05T08:56:53.780Z,18.45
2022-10-05T08:59:57.756Z,20.27
2022-10-05T09:02:52.869Z,17.00
2022-10-05T09:05:38.106Z,25.23
2022-10-05T09:08:23.666Z,20.80
2022-10-05T09:11:03.918Z,17.67
2022-10-05T09:13:31.641Z,19.05
2022-10-05T09:16:32.615Z,15.20
2022-10-05T09:19:02.514Z,15.43
2022-10-05T09:21:41.862Z,16.55
2022-10-05T09:24:14.793Z,14.13
2022-10-05T09:26:42.982Z,14.80
2022-10-05T09:29:57.369Z,15.57
2022-10-05T09:32:44.596Z,14.20
2022-10-05T09:35:21.584Z,14.70
2022-10-05T09:37:48.217Z,12.27
2022-10-05T09:40:24.031Z,15.52
2022-10-05T09:43:20.472Z,10.65
2022-10-05T09:45:48.980Z,15.38
2022-10-05T09:48:45.487Z,11.43
2022-10-05T09:51:36.767Z,11.32
2022-10-05T09:54:21.543Z,10.90
2022-10-05T09:57:15.112Z,13.05
2022-10-05T10:00:21.206Z,14.75
2022-10-05T10:03:04.976Z,10.65
2022-10-05T10:05:34.809Z,10.35
2022-10-05T10:08:23.570Z,10.50
2022-10-05T10:11:02.330Z,10.30
2022-10-05T10:13:41.166Z,14.48
2022-10-05T10:16:27.017Z,14.30
2022-10-05T10:19:01.176Z,12.93
2022-10-05T10:22:00.295Z,11.65
2022-10-05T10:24:52.057Z,18.23
2022-10-05T10:27:41.959Z,13.02
2022-10-05T10:30:47.569Z,12.00
2022-10-05T10:33:16.869Z,11.00
2022-10-05T10:36:07.009Z,13.98
2022-10-05T10:39:07.000Z,14.77
2022-10-05T10:42:14.118Z,11.23
2022-10-05T10:44:59.091Z,13.65
2022-10-05T10:47:44.433Z,15.13
2022-10-05T10:50:28.377Z,13.23
2022-10-05T10:54:02.716Z,12.38
2022-10-05T10:56:47.723Z,14.52
2022-10-05T10:59:46.836Z,11.98
2022-10-05T11:02:42.469Z,9.90
2022-10-05T11:05:38.215Z,11.27
2022-10-05T11:08:22.899Z,12.30
2022-10-05T11:11:22.836Z,8.32
2022-10-05T11:14:16.642Z,10.75
2022-10-05T11:17:17.163Z,6.47
2022-10-05T11:20:05.742Z,9.90
2022-10-05T11:22:42.428Z,9.13
2022-10-05T11:25:33.932Z,8.82
2022-10-05T11:28:40.194Z,7.75
2022-10-05T11:31:12.895Z,10.50
2022-10-05T11:33:43.103Z,6.28
2022-10-05T11:36:37.952Z,4.78
2022-10-05T11:39:23.517Z,7.88
2022-10-05T11:42:08.046Z,9.05
2022-10-05T11:45:00.789Z,10.73
2022-10-05T11:47:39.634Z,7.15
2022-10-05T11:50:32.781Z,8.30
2022-10-05T11:53:23.161Z,5.07
2022-10-05T11:56:00.413Z,7.97
2022-10-05T11:58:33.809Z,8.55
2022-10-05T12:01:34.799Z,5.97
2022-10-05T12:04:27.768Z,8.38
2022-10-05T12:07:08.129Z,8.05
2022-10-05T12:10:02.857Z,6.20
2022-10-05T12:12:37.164Z,8.80
2022-10-05T12:15:10.390Z,8.70
2022-10-05T12:17:48.831Z,7.38
2022-10-05T12:20:40.318Z,10.77
2022-10-05T12:23:25.059Z,5.88
2022-10-05T12:26:02.200Z,9.10
2022-10-05T12:28:49.950Z,11.02
2022-10-05T12:31:43.780Z,4.53
2022-10-05T12:34:16.894Z,7.07
2022-10-05T12:37:16.326Z,8.68
2022-10-05T12:40:12.502Z,8.18
2022-10-05T12:42:52.037Z,11.55
2022-10-05T12:45:36.996Z,7.50
2022-10-05T12:48:19.207Z,10.88
2022-10-05T12:50:51.485Z,7.22
2022-10-05T12:53:33.376Z,6.40
2022-10-05T12:56:30.743Z,6.35
2022-10-05T12:59:42.695Z,5.43
2022-10-05T13:02:25.093Z,9.30
2022-10-05T13:05:11.996Z,8.82
2022-10-05T13:07:48.698Z,6.43
2022-10-05T13:10:24.791Z,6.05
2022-10-05T13:13:12.729Z,9.95
2022-10-05T13:15:56.565Z,5.72
2022-10-05T13:18:29.492Z,4.80
2022-10-05T13:21:12.841Z,11.45
2022-10-05T13:23:53.750Z,5.40
2022-10-05T13:26:34.165Z,7.50
2022-10-05T13:29:22.502Z,6.40
2022-10-05T13:31:55.754Z,7.13
2022-10-05T13:34:38.656Z,8.38
2022-10-05T13:37:31.857Z,4.63
2022-10-05T13:40:02.025Z,5.80
2022-10-05T13:42:41.287Z,9.43
2022-10-05T13:48:27.474Z,4.50
2022-10-05T13:51:05.291Z,3.92
2022-10-05T13:53:42.677Z,6.40
2022-10-05T13:56:33.244Z,3.92
2022-10-05T13:59:33.136Z,8.75
2022-10-05T14:02:07.812Z,4.78
2022-10-05T14:04:51.195Z,3.78
2022-10-05T14:07:31.702Z,6.43
2022-10-05T14:10:02.227Z,7.82
2022-10-05T14:12:29.040Z,5.20
2022-10-05T14:15:12.897Z,10.88
2022-10-05T14:17:42.464Z,4.50
2022-10-05T14:20:27.481Z,8.75
2022-10-05T14:23:01.915Z,8.45
2022-10-05T14:25:31.052Z,5.82
2022-10-05T14:28:00.633Z,7.13
2022-10-05T14:30:30.122Z,8.60
2022-10-05T14:35:56.057Z,3.78
2022-10-05T14:38:23.053Z,8.43
2022-10-05T14:41:13.406Z,7.88
2022-10-05T14:44:07.330Z,6.00
2022-10-05T14:46:36.682Z,9.40
2022-10-05T14:49:21.335Z,6.82
2022-10-05T14:51:49.676Z,8.00
2022-10-05T14:54:46.576Z,4.18
2022-10-05T14:57:40.830Z,6.95
2022-10-05T15:00:18.905Z,13.60
2022-10-05T15:02:45.610Z,7.57
2022-10-05T15:05:53.992Z,10.82
2022-10-05T15:08:53.710Z,7.07
2022-10-05T15:11:34.793Z,10.07
2022-10-05T15:14:06.406Z,5.95
2022-10-05T15:16:38.486Z,6.20
2022-10-05T15:19:24.418Z,9.02
2022-10-05T15:22:10.640Z,4.22
2022-10-05T15:24:56.055Z,3.60
2022-10-05T15:27:35.708Z,4.47
2022-10-05T15:32:51.234Z,11.52
2022-10-05T15:36:00.770Z,8.88
2022-10-05T15:41:18.335Z,6.85
2022-10-05T15:43:55.379Z,10.05
2022-10-05T15:46:47.165Z,7.57
2022-10-05T15:49:16.704Z,4.65
2022-10-05T15:52:07.663Z,11.40
2022-10-05T15:55:01.963Z,5.80
2022-10-05T15:57:48.731Z,7.72
2022-10-05T16:00:23.600Z,5.32
2022-10-05T16:03:12.281Z,9.25
2022-10-05T16:06:08.906Z,2.53
2022-10-05T16:08:55.924Z,2.75
2022-10-05T16:11:40.922Z,4.45
2022-10-05T16:14:10.425Z,4.60
2022-10-05T16:16:42.424Z,6.57
2022-10-05T16:19:12.665Z,8.48
2022-10-05T16:21:44.291Z,6.95
2022-10-05T16:24:35.678Z,3.97
2022-10-05T16:27:16.342Z,2.83
2022-10-05T16:30:11.863Z,5.55
2022-10-05T16:32:46.498Z,3.67
2022-10-05T16:35:25.331Z,10.07
2022-10-05T16:38:05.753Z,9.27
2022-10-05T16:41:01.073Z,8.20
2022-10-05T16:43:34.734Z,8.32
2022-10-05T16:46:22.166Z,5.80
2022-10-05T16:49:01.409Z,4.72
2022-10-05T16:51:28.143Z,5.18
2022-10-05T16:54:18.542Z,3.92
2022-10-05T16:56:52.127Z,4.40
2022-10-05T16:59:46.984Z,6.43
2022-10-05T17:02:35.442Z,5.88
2022-10-05T17:05:40.102Z,4.53
2022-10-05T17:08:27.908Z,9.98
2022-10-05T17:11:19.955Z,4.25
2022-10-05T17:14:08.265Z,6.18
2022-10-05T17:17:05.486Z,3.47
2022-10-05T17:20:01.250Z,7.70
2022-10-05T17:22:42.787Z,6.03
2022-10-05T17:25:27.856Z,7.60
2022-10-05T17:28:33.402Z,9.52
2022-10-05T17:31:15.223Z,7.85
2022-10-05T17:34:00.397Z,5.75
2022-10-05T17:36:49.234Z,5.97
2022-10-05T17:39:22.113Z,4.50
2022-10-05T17:41:49.401Z,8.32
2022-10-05T17:44:19.630Z,14.73
2022-10-05T17:47:01.097Z,7.45
2022-10-05T17:50:15.426Z,8.48
2022-10-05T17:53:03.062Z,7.50
2022-10-05T17:55:45.023Z,9.10
2022-10-05T17:58:24.133Z,4.28
2022-10-05T18:00:57.167Z,7.03
2022-10-05T18:04:11.587Z,11.75
2022-10-05T18:07:27.867Z,5.15
2022-10-05T18:09:59.257Z,8.15
2022-10-05T18:12:41.677Z,7.00
2022-10-05T18:15:09.472Z,8.40
2022-10-05T18:18:25.756Z,7.63
2022-10-05T18:21:14.141Z,5.55
2022-10-05T18:24:23.289Z,8.57
2022-10-05T18:27:05.289Z,10.43
2022-10-05T18:30:05.532Z,5.13
2022-10-05T18:32:38.321Z,6.07
2022-10-05T18:35:32.720Z,7.88
2022-10-05T18:38:19.621Z,14.32
2022-10-05T18:40:55.833Z,8.57
2022-10-05T18:43:34.836Z,5.88
2022-10-05T18:46:27.414Z,9.52
2022-10-05T18:49:08.127Z,9.45
2022-10-05T18:51:51.008Z,7.30
2022-10-05T18:54:57.541Z,10.15
2022-10-05T18:57:33.102Z,15.15
2022-10-05T19:00:08.038Z,4.07
2022-10-05T19:02:40.510Z,6.30
2022-10-05T19:05:49.113Z,7.18
2022-10-05T19:08:53.621Z,7.95
2022-10-05T19:11:36.605Z,5.55
2022-10-05T19:14:21.843Z,10.80
2022-10-05T19:17:01.588Z,9.75
2022-10-05T19:19:49.273Z,16.52
2022-10-05T19:22:26.584Z,6.88
2022-10-05T19:25:17.494Z,16.75
2022-10-05T19:28:14.248Z,10.35
2022-10-05T19:30:53.758Z,10.38
2022-10-05T19:33:37.876Z,9.52
2022-10-05T19:36:17.066Z,11.55
2022-10-05T19:39:06.649Z,7.47
2022-10-05T19:42:10.602Z,9.73
2022-10-05T19:44:57.592Z,21.08
2022-10-05T19:47:45.512Z,13.02
2022-10-05T19:50:27.882Z,9.68
2022-10-05T19:53:11.392Z,11.88
2022-10-05T19:55:41.920Z,9.93
2022-10-05T19:58:40.092Z,6.55
2022-10-05T20:01:11.508Z,12.52
2022-10-05T20:03:38.722Z,10.68
2022-10-05T20:06:08.171Z,9.93
2022-10-05T20:08:47.122Z,7.15
2022-10-05T20:11:17.516Z,10.15
2022-10-05T20:14:09.679Z,6.60
2022-10-05T20:16:55.382Z,12.95
2022-10-05T20:20:06.748Z,9.38
2022-10-05T20:22:36.118Z,11.40
2022-10-05T20:25:06.507Z,12.00
2022-10-05T20:27:42.245Z,11.98
2022-10-05T20:30:11.653Z,11.07
2022-10-05T20:32:38.676Z,7.05
2022-10-05T20:35:07.073Z,10.23
2022-10-05T20:37:34.217Z,7.30
2022-10-05T20:40:00.941Z,11.45
2022-10-05T20:42:27.653Z,16.27
2022-10-05T20:44:57.010Z,13.07
2022-10-05T20:47:24.797Z,18.45
2022-10-05T20:49:53.477Z,11.65
2022-10-05T20:52:21.277Z,14.57
2022-10-05T20:54:48.174Z,15.90
2022-10-05T20:57:14.981Z,11.73
2022-10-05T20:59:41.864Z,12.27
2022-10-05T21:02:08.741Z,12.00
2022-10-05T21:04:40.817Z,15.32
2022-10-05T21:07:08.532Z,12.55
2022-10-05T21:09:38.161Z,13.00
2022-10-05T21:12:05.000Z,15.02
2022-10-05T21:14:34.658Z,10.18
2022-10-05T21:17:05.197Z,8.20
2022-10-05T21:19:38.470Z,11.30
2022-10-05T21:22:10.013Z,12.68
2022-10-05T21:24:38.929Z,14.43
2022-10-05T21:27:06.269Z,8.48
2022-10-05T21:29:34.442Z,14.35
2022-10-05T21:32:01.389Z,7.03
2022-10-05T21:34:28.838Z,9.05
2022-10-05T21:36:55.678Z,10.00
2022-10-05T21:39:22.562Z,10.32
2022-10-05T21:41:49.875Z,11.68
2022-10-05T21:44:16.848Z,8.15
2022-10-05T21:46:43.920Z,15.30
2022-10-05T21:49:11.027Z,8.57
2022-10-05T21:51:38.787Z,8.70
2022-10-05T21:54:24.515Z,19.00
2022-10-05T21:56:54.844Z,13.70
2022-10-05T21:59:27.204Z,19.05
2022-10-05T22:01:54.105Z,10.10
2022-10-05T22:04:20.983Z,11.13
2022-10-05T22:06:49.224Z,10.65
2022-10-05T22:09:15.949Z,8.95
2022-10-05T22:11:42.693Z,13.23
2022-10-05T22:14:09.630Z,13.95
2022-10-05T22:16:38.952Z,8.65
2022-10-05T22:19:10.968Z,6.93
2022-10-05T22:21:41.675Z,14.50
2022-10-05T22:24:11.733Z,21.33
2022-10-05T22:29:05.904Z,13.55
2022-10-05T22:31:32.901Z,10.52
2022-10-05T22:33:59.643Z,7.90
2022-10-05T22:36:26.923Z,8.85
2022-10-05T22:38:53.753Z,7.93
2022-10-05T22:41:20.993Z,11.23
2022-10-05T22:43:50.403Z,19.45
2022-10-05T22:46:17.562Z,9.00
2022-10-05T22:48:44.366Z,10.73
2022-10-05T22:51:11.111Z,8.95
2022-10-05T22:53:38.287Z,14.55
2022-10-05T22:56:11.054Z,11.07
2022-10-05T22:58:38.302Z,13.90
2022-10-05T23:01:08.109Z,11.93
2022-10-05T23:03:35.503Z,15.45
2022-10-05T23:06:05.295Z,13.65
2022-10-05T23:08:33.380Z,11.18
2022-10-05T23:11:07.255Z,13.70
2022-10-05T23:13:34.416Z,17.73
2022-10-05T23:16:14.256Z,12.32
2022-10-05T23:18:42.562Z,10.48
2022-10-05T23:21:10.537Z,11.35
2022-10-05T23:23:43.633Z,19.55
2022-10-05T23:26:12.149Z,14.48
2022-10-05T23:28:40.617Z,14.82
2022-10-05T23:31:08.975Z,22.23
2022-10-05T23:33:35.857Z,19.48
2022-10-05T23:36:06.348Z,13.80
2022-10-05T23:38:34.475Z,14.45
2022-10-05T23:41:02.631Z,9.32
2022-10-05T23:43:29.974Z,10.90
2022-10-05T23:45:56.932Z,8.63
2022-10-05T23:48:23.673Z,13.65
2022-10-05T23:50:50.610Z,13.50
2022-10-05T23:53:18.011Z,13.75
2022-10-05T23:55:45.236Z,11.40
2022-10-05T23:58:12.004Z,11.98
